createdAt,value
2023-05-03T00:00:13.803Z,14.90
2023-05-03T00:02:40.695Z,14.94
2023-05-03T00:05:12.979Z,15.00
2023-05-03T00:07:41.968Z,14.91
2023-05-03T00:10:10.432Z,14.93
2023-05-03T00:12:41.098Z,14.99
2023-05-03T00:15:09.034Z,14.95
2023-05-03T00:17:36.821Z,14.95
2023-05-03T00:20:04.816Z,15.00
2023-05-03T00:22:32.350Z,15.07
2023-05-03T00:25:01.941Z,15.02
2023-05-03T00:27:29.079Z,15.00
2023-05-03T00:29:55.701Z,14.88
2023-05-03T00:32:23.145Z,14.85
2023-05-03T00:34:57.294Z,14.82
2023-05-03T00:37:25.572Z,14.84
2023-05-03T00:39:52.374Z,14.76
2023-05-03T00:42:19.132Z,14.82
2023-05-03T00:44:45.710Z,14.84
2023-05-03T00:47:12.794Z,14.62
2023-05-03T00:49:39.893Z,14.64
2023-05-03T00:52:06.703Z,14.57
2023-05-03T00:54:35.295Z,14.60
2023-05-03T00:57:02.735Z,14.58
2023-05-03T00:59:29.220Z,14.61
2023-05-03T01:01:55.942Z,14.60
2023-05-03T01:04:23.633Z,14.57
2023-05-03T01:07:05.264Z,14.74
2023-05-03T01:09:44.683Z,14.75
2023-05-03T01:12:36.999Z,14.75
2023-05-03T01:15:50.913Z,14.75
2023-05-03T01:18:24.328Z,14.74
2023-05-03T01:20:52.634Z,14.69
2023-05-03T01:23:32.964Z,14.76
2023-05-03T01:25:59.630Z,14.87
2023-05-03T01:28:26.318Z,14.87
2023-05-03T01:30:53.998Z,14.80
2023-05-03T01:33:35.032Z,14.80
2023-05-03T01:36:16.357Z,14.77
2023-05-03T01:38:43.447Z,14.82
2023-05-03T01:41:12.384Z,14.84
2023-05-03T01:43:40.766Z,14.83
2023-05-03T01:46:07.686Z,14.85
2023-05-03T01:48:34.302Z,14.82
2023-05-03T01:51:00.966Z,14.71
2023-05-03T01:53:27.700Z,14.75
2023-05-03T01:55:54.348Z,14.81
2023-05-03T01:58:20.905Z,14.77
2023-05-03T02:00:48.090Z,14.79
2023-05-03T02:03:14.893Z,14.84
2023-05-03T02:05:41.570Z,14.85
2023-05-03T02:08:08.334Z,14.84
2023-05-03T02:10:34.905Z,14.83
2023-05-03T02:13:01.560Z,14.76
2023-05-03T02:15:28.161Z,14.80
2023-05-03T02:17:55.804Z,14.79
2023-05-03T02:20:22.565Z,14.74
2023-05-03T02:22:49.134Z,14.74
2023-05-03T02:25:15.797Z,14.75
2023-05-03T02:27:42.526Z,14.72
2023-05-03T02:30:09.412Z,14.76
2023-05-03T02:32:36.262Z,14.87
2023-05-03T02:35:03.070Z,14.93
2023-05-03T02:37:29.712Z,14.89
2023-05-03T02:39:56.382Z,15.01
2023-05-03T02:42:22.995Z,15.00
2023-05-03T02:44:49.680Z,14.96
2023-05-03T02:47:16.397Z,14.93
2023-05-03T02:49:43.103Z,14.96
2023-05-03T02:52:09.820Z,14.97
2023-05-03T02:54:36.652Z,14.97
2023-05-03T02:57:04.603Z,15.00
2023-05-03T02:59:32.889Z,14.95
2023-05-03T03:01:59.636Z,14.92
2023-05-03T03:04:26.328Z,14.92
2023-05-03T03:06:56.916Z,14.92
2023-05-03T03:09:23.537Z,14.99
2023-05-03T03:11:53.266Z,14.66
2023-05-03T03:14:19.913Z,14.46
2023-05-03T03:16:46.736Z,14.23
2023-05-03T03:19:13.876Z,14.28
2023-05-03T03:21:40.802Z,14.45
2023-05-03T03:24:07.541Z,14.51
2023-05-03T03:26:34.172Z,14.53
2023-05-03T03:29:01.196Z,14.65
2023-05-03T03:31:27.824Z,14.74
2023-05-03T03:33:54.415Z,14.70
2023-05-03T03:36:21.176Z,14.58
2023-05-03T03:38:47.816Z,14.61
2023-05-03T03:41:14.554Z,14.62
2023-05-03T03:43:41.321Z,14.42
2023-05-03T03:46:07.958Z,14.36
2023-05-03T03:48:34.518Z,14.35
2023-05-03T03:51:01.139Z,14.39
2023-05-03T03:53:27.752Z,14.20
2023-05-03T03:55:54.460Z,14.22
2023-05-03T03:58:21.192Z,13.86
2023-05-03T04:00:48.092Z,13.80
2023-05-03T04:03:16.017Z,13.89
2023-05-03T04:05:42.686Z,14.03
2023-05-03T04:08:09.424Z,14.04
2023-05-03T04:10:36.012Z,14.06
2023-05-03T04:13:02.792Z,14.12
2023-05-03T04:15:29.405Z,14.12
2023-05-03T04:17:56.022Z,14.13
2023-05-03T04:20:23.562Z,14.16
2023-05-03T04:22:50.289Z,13.89
2023-05-03T04:25:19.936Z,13.82
2023-05-03T04:27:47.485Z,13.63
2023-05-03T04:30:15.151Z,13.64
2023-05-03T04:32:42.841Z,13.59
2023-05-03T04:35:12.611Z,13.32
2023-05-03T04:37:42.745Z,13.31
2023-05-03T04:40:12.625Z,13.23
2023-05-03T04:42:39.699Z,13.23
2023-05-03T04:45:06.950Z,13.19
2023-05-03T04:47:33.758Z,13.10
2023-05-03T04:50:00.713Z,13.06
2023-05-03T04:52:28.012Z,13.23
2023-05-03T04:54:54.775Z,13.30
2023-05-03T04:57:21.479Z,13.34
2023-05-03T04:59:48.410Z,13.43
2023-05-03T05:02:15.013Z,13.47
2023-05-03T05:04:41.742Z,13.54
2023-05-03T05:07:08.392Z,13.58
2023-05-03T05:09:34.991Z,13.58
2023-05-03T05:12:02.147Z,13.68
2023-05-03T05:14:30.990Z,13.72
2023-05-03T05:16:58.316Z,13.76
2023-05-03T05:19:25.088Z,13.71
2023-05-03T05:21:52.172Z,13.78
2023-05-03T05:24:19.040Z,13.78
2023-05-03T05:26:46.003Z,13.59
2023-05-03T05:29:12.858Z,13.63
2023-05-03T05:31:39.883Z,13.73
2023-05-03T05:34:06.753Z,13.83
2023-05-03T05:36:33.824Z,13.88
2023-05-03T05:39:00.634Z,13.93
2023-05-03T05:41:27.433Z,13.96
2023-05-03T05:43:54.085Z,14.06
2023-05-03T05:46:23.921Z,14.17
2023-05-03T05:48:51.454Z,14.36
2023-05-03T05:51:17.991Z,14.44
2023-05-03T05:53:44.618Z,14.51
2023-05-03T05:56:11.691Z,14.59
2023-05-03T05:58:38.842Z,14.59
2023-05-03T06:01:05.854Z,14.79
2023-05-03T06:03:34.393Z,14.97
2023-05-03T06:06:01.362Z,15.40
2023-05-03T06:08:28.325Z,15.56
2023-05-03T06:10:55.212Z,15.49
2023-05-03T06:13:22.530Z,15.52
2023-05-03T06:15:49.178Z,15.40
2023-05-03T06:18:16.058Z,15.26
2023-05-03T06:20:42.891Z,15.09
2023-05-03T06:23:09.692Z,15.06
2023-05-03T06:25:36.561Z,15.15
2023-05-03T06:28:03.300Z,15.35
2023-05-03T06:30:30.206Z,15.44
2023-05-03T06:32:57.136Z,15.50
2023-05-03T06:35:23.844Z,15.47
2023-05-03T06:37:50.674Z,15.61
2023-05-03T06:40:18.245Z,15.54
2023-05-03T06:42:44.817Z,15.38
2023-05-03T06:45:11.777Z,15.41
2023-05-03T06:47:40.219Z,15.38
2023-05-03T06:50:07.694Z,15.35
2023-05-03T06:52:34.447Z,15.27
2023-05-03T06:55:01.513Z,15.36
2023-05-03T06:57:28.883Z,15.43
2023-05-03T06:59:55.932Z,15.52
2023-05-03T07:02:23.009Z,15.43
2023-05-03T07:04:49.684Z,15.51
2023-05-03T07:07:16.434Z,15.61
2023-05-03T07:09:44.017Z,15.79
2023-05-03T07:12:11.625Z,15.84
2023-05-03T07:14:38.696Z,15.91
2023-05-03T07:17:05.270Z,16.04
2023-05-03T07:19:32.154Z,16.22
2023-05-03T07:21:59.048Z,16.73
2023-05-03T07:24:28.797Z,17.15
2023-05-03T07:26:55.454Z,17.86
2023-05-03T07:29:22.071Z,18.31
2023-05-03T07:31:49.935Z,18.54
2023-05-03T07:34:18.036Z,18.97
2023-05-03T07:36:44.592Z,19.56
2023-05-03T07:39:11.180Z,19.96
2023-05-03T07:41:37.787Z,19.70
2023-05-03T07:44:04.723Z,19.42
2023-05-03T07:46:35.011Z,19.72
2023-05-03T07:49:04.203Z,19.99
2023-05-03T07:51:34.871Z,20.11
2023-05-03T07:54:01.740Z,20.04
2023-05-03T07:56:28.741Z,19.97
2023-05-03T07:59:07.407Z,19.76
2023-05-03T08:01:35.573Z,19.20
2023-05-03T08:04:02.451Z,19.29
2023-05-03T08:06:29.526Z,19.09
2023-05-03T08:08:56.217Z,19.26
2023-05-03T08:11:22.877Z,19.18
2023-05-03T08:13:49.480Z,19.06
2023-05-03T08:16:16.632Z,19.07
2023-05-03T08:18:43.340Z,19.08
2023-05-03T08:21:12.034Z,19.01
2023-05-03T08:23:38.636Z,18.95
2023-05-03T08:26:07.746Z,18.96
2023-05-03T08:28:34.438Z,19.01
2023-05-03T08:31:03.777Z,18.66
2023-05-03T08:33:31.003Z,18.52
2023-05-03T08:35:57.560Z,18.41
2023-05-03T08:38:24.760Z,18.53
2023-05-03T08:40:54.414Z,18.06
2023-05-03T08:43:21.959Z,17.86
2023-05-03T08:45:48.683Z,17.97
2023-05-03T08:48:15.778Z,18.15
2023-05-03T08:50:42.873Z,18.26
2023-05-03T08:53:10.679Z,18.39
2023-05-03T08:55:37.993Z,18.21
2023-05-03T08:58:12.848Z,18.06
2023-05-03T09:00:41.711Z,18.16
2023-05-03T09:03:08.663Z,18.08
2023-05-03T09:05:38.894Z,18.14
2023-05-03T09:08:09.926Z,18.03
2023-05-03T09:10:41.197Z,18.17
2023-05-03T09:13:09.024Z,18.26
2023-05-03T09:15:35.992Z,18.07
2023-05-03T09:18:13.608Z,18.29
2023-05-03T09:20:41.852Z,18.30
2023-05-03T09:23:09.880Z,18.35
2023-05-03T09:25:51.603Z,18.48
2023-05-03T09:28:20.032Z,18.50
2023-05-03T09:30:48.563Z,18.21
2023-05-03T09:33:23.012Z,18.16
2023-05-03T09:36:04.003Z,17.93
2023-05-03T09:38:32.585Z,18.02
2023-05-03T09:40:59.837Z,18.09
2023-05-03T09:43:26.471Z,18.16
2023-05-03T09:45:53.188Z,18.03
2023-05-03T09:48:23.630Z,18.16
2023-05-03T09:50:51.305Z,18.44
2023-05-03T09:53:21.540Z,18.51
2023-05-03T09:55:51.055Z,18.71
2023-05-03T09:58:18.941Z,18.54
2023-05-03T10:00:46.608Z,18.77
2023-05-03T10:03:20.162Z,18.48
2023-05-03T10:05:48.994Z,18.37
2023-05-03T10:08:26.680Z,18.25
2023-05-03T10:10:54.465Z,18.02
2023-05-03T10:13:22.615Z,18.40
2023-05-03T10:15:56.725Z,18.25
2023-05-03T10:18:27.595Z,17.98
2023-05-03T10:21:01.376Z,17.88
2023-05-03T10:23:28.078Z,17.87
2023-05-03T10:26:14.226Z,17.81
2023-05-03T10:28:41.285Z,17.84
2023-05-03T10:31:47.046Z,18.06
2023-05-03T10:34:24.931Z,18.33
2023-05-03T10:36:55.643Z,18.48
2023-05-03T10:39:22.820Z,18.59
2023-05-03T10:42:03.170Z,18.89
2023-05-03T10:44:41.196Z,18.77
2023-05-03T10:47:26.622Z,18.77
2023-05-03T10:50:11.852Z,18.86
2023-05-03T10:52:38.569Z,19.10
2023-05-03T10:55:24.672Z,19.51
2023-05-03T10:57:55.317Z,19.39
2023-05-03T11:00:41.366Z,19.43
2023-05-03T11:03:11.432Z,19.62
2023-05-03T11:05:39.093Z,19.89
2023-05-03T11:08:18.080Z,19.98
2023-05-03T11:10:46.100Z,20.04
2023-05-03T11:13:13.501Z,20.06
2023-05-03T11:15:40.280Z,20.06
2023-05-03T11:18:08.123Z,20.20
2023-05-03T11:20:36.389Z,20.41
2023-05-03T11:23:04.046Z,20.69
2023-05-03T11:25:30.986Z,20.80
2023-05-03T11:27:57.590Z,20.74
2023-05-03T11:30:24.294Z,20.58
2023-05-03T11:32:51.037Z,20.09
2023-05-03T11:35:18.146Z,20.08
2023-05-03T11:37:45.167Z,19.91
2023-05-03T11:40:17.080Z,19.96
2023-05-03T11:42:58.601Z,19.87
2023-05-03T11:45:47.234Z,19.84
2023-05-03T11:48:14.848Z,19.92
2023-05-03T11:50:55.472Z,19.87
2023-05-03T11:53:23.523Z,19.81
2023-05-03T11:55:53.968Z,19.51
2023-05-03T11:58:22.782Z,19.32
2023-05-03T12:00:50.732Z,19.42
2023-05-03T12:03:21.213Z,19.31
2023-05-03T12:05:49.964Z,19.22
2023-05-03T12:08:20.872Z,19.09
2023-05-03T12:10:50.135Z,19.09
2023-05-03T12:13:38.780Z,19.11
2023-05-03T12:16:12.687Z,19.02
2023-05-03T12:18:56.721Z,18.79
2023-05-03T12:23:57.458Z,18.45
2023-05-03T12:26:26.686Z,18.36
2023-05-03T12:28:56.025Z,18.33
2023-05-03T12:31:24.017Z,18.17
2023-05-03T12:34:12.345Z,18.11
2023-05-03T12:36:38.426Z,17.91
2023-05-03T12:39:10.119Z,17.67
2023-05-03T12:44:10.133Z,17.77
2023-05-03T12:46:38.191Z,17.52
2023-05-03T12:49:08.207Z,17.57
2023-05-03T12:51:35.695Z,17.48
2023-05-03T12:54:03.763Z,17.31
2023-05-03T12:56:33.105Z,17.22
2023-05-03T13:04:33.188Z,17.80
2023-05-03T13:06:47.058Z,17.97
2023-05-03T13:09:20.839Z,18.12
2023-05-03T13:11:55.249Z,18.14
2023-05-03T13:14:22.285Z,18.15
2023-05-03T13:16:49.355Z,18.10
2023-05-03T13:19:16.492Z,18.09
2023-05-03T13:21:43.142Z,18.05
2023-05-03T13:24:09.723Z,17.99
2023-05-03T13:26:36.396Z,17.92
2023-05-03T13:29:05.087Z,17.79
2023-05-03T13:31:31.809Z,17.63
2023-05-03T13:33:58.445Z,17.52
2023-05-03T13:36:25.117Z,17.45
2023-05-03T13:38:52.162Z,17.49
2023-05-03T13:41:22.518Z,17.52
2023-05-03T13:43:49.153Z,17.60
2023-05-03T13:46:15.800Z,17.63
2023-05-03T13:48:43.490Z,17.65
2023-05-03T13:51:11.598Z,17.64
2023-05-03T13:53:38.838Z,17.54
2023-05-03T13:56:07.129Z,17.35
2023-05-03T13:58:37.147Z,17.11
2023-05-03T14:01:03.890Z,17.02
2023-05-03T14:03:32.325Z,16.97
2023-05-03T14:05:59.067Z,17.08
2023-05-03T14:08:25.705Z,17.11
2023-05-03T14:10:52.468Z,17.11
2023-05-03T14:13:19.114Z,16.96
2023-05-03T14:15:46.178Z,16.88
2023-05-03T14:18:13.003Z,16.87
2023-05-03T14:20:39.751Z,16.67
2023-05-03T14:23:06.802Z,16.65
2023-05-03T14:25:33.421Z,16.67
2023-05-03T14:28:00.148Z,16.65
2023-05-03T14:30:26.800Z,16.60
2023-05-03T14:32:53.532Z,16.62
2023-05-03T14:35:20.465Z,16.74
2023-05-03T14:37:47.343Z,16.79
2023-05-03T14:40:14.529Z,16.91
2023-05-03T14:42:41.240Z,16.59
2023-05-03T14:45:10.954Z,16.41
2023-05-03T14:47:39.380Z,16.75
2023-05-03T14:50:06.582Z,16.82
2023-05-03T14:52:33.532Z,16.84
2023-05-03T14:55:00.217Z,16.91
2023-05-03T14:57:27.004Z,16.94
2023-05-03T14:59:53.648Z,17.00
2023-05-03T15:02:20.408Z,17.06
2023-05-03T15:04:47.144Z,17.06
2023-05-03T15:07:13.885Z,17.08
2023-05-03T15:09:40.560Z,17.02
2023-05-03T15:12:07.547Z,17.03
2023-05-03T15:14:34.196Z,17.02
2023-05-03T15:17:01.024Z,16.98
2023-05-03T15:19:28.314Z,16.96
2023-05-03T15:21:55.146Z,16.90
2023-05-03T15:24:24.623Z,16.79
2023-05-03T15:26:51.661Z,16.84
2023-05-03T15:29:18.399Z,16.77
2023-05-03T15:31:45.104Z,16.65
2023-05-03T15:34:12.433Z,16.60
2023-05-03T15:36:40.643Z,16.46
2023-05-03T15:39:07.874Z,16.46
2023-05-03T15:41:34.490Z,16.40
2023-05-03T15:44:05.097Z,16.29
2023-05-03T15:46:32.646Z,16.35
2023-05-03T15:48:59.380Z,16.34
2023-05-03T15:51:28.010Z,16.38
2023-05-03T15:53:54.970Z,16.25
2023-05-03T15:56:24.892Z,16.10
2023-05-03T15:58:51.666Z,15.90
2023-05-03T16:01:18.786Z,15.91
2023-05-03T16:03:46.240Z,15.92
2023-05-03T16:06:12.815Z,15.85
2023-05-03T16:08:39.463Z,15.87
2023-05-03T16:11:06.711Z,15.85
2023-05-03T16:13:33.437Z,15.86
2023-05-03T16:16:02.632Z,15.84
2023-05-03T16:18:29.308Z,15.88
2023-05-03T16:20:56.028Z,15.92
2023-05-03T16:23:22.670Z,15.95
2023-05-03T16:25:49.406Z,15.87
2023-05-03T16:28:16.400Z,15.86
2023-05-03T16:30:43.802Z,15.75
2023-05-03T16:33:10.387Z,15.70
2023-05-03T16:35:37.031Z,15.73
2023-05-03T16:38:03.645Z,15.66
2023-05-03T16:40:32.263Z,15.57
2023-05-03T16:42:58.950Z,15.50
2023-05-03T16:45:26.001Z,15.43
2023-05-03T16:47:53.020Z,15.35
2023-05-03T16:50:20.393Z,15.47
2023-05-03T16:52:47.053Z,15.51
2023-05-03T16:55:14.546Z,15.53
2023-05-03T16:57:41.257Z,15.56
2023-05-03T17:00:09.769Z,15.54
2023-05-03T17:02:38.138Z,15.50
2023-05-03T17:05:05.459Z,15.40
2023-05-03T17:07:33.215Z,15.43
2023-05-03T17:10:00.588Z,15.46
2023-05-03T17:12:27.419Z,15.41
2023-05-03T17:14:54.062Z,15.36
2023-05-03T17:17:21.935Z,15.30
2023-05-03T17:19:48.625Z,15.30
2023-05-03T17:22:15.304Z,15.28
2023-05-03T17:24:41.910Z,15.31
2023-05-03T17:27:09.578Z,15.30
2023-05-03T17:29:36.553Z,15.29
2023-05-03T17:32:03.983Z,15.26
2023-05-03T17:34:31.512Z,15.30
2023-05-03T17:36:59.171Z,15.19
2023-05-03T17:39:26.066Z,15.14
2023-05-03T17:41:53.035Z,15.07
2023-05-03T17:44:19.704Z,14.94
2023-05-03T17:46:46.533Z,14.91
2023-05-03T17:49:13.229Z,14.88
2023-05-03T17:51:39.848Z,14.75
2023-05-03T17:54:06.582Z,14.74
2023-05-03T17:56:33.209Z,14.68
2023-05-03T17:58:59.869Z,14.58
2023-05-03T18:01:27.730Z,14.67
2023-05-03T18:03:54.544Z,14.74
2023-05-03T18:06:21.469Z,14.72
2023-05-03T18:08:48.459Z,14.71
2023-05-03T18:11:15.077Z,14.75
2023-05-03T18:13:43.111Z,14.71
2023-05-03T18:16:10.027Z,14.71
2023-05-03T18:18:39.546Z,14.69
2023-05-03T18:21:06.397Z,14.57
2023-05-03T18:23:33.450Z,14.63
2023-05-03T18:26:00.376Z,14.59
2023-05-03T18:28:27.612Z,14.56
2023-05-03T18:30:56.056Z,14.55
2023-05-03T18:33:23.166Z,14.42
2023-05-03T18:35:52.996Z,14.58
2023-05-03T18:38:21.513Z,14.58
2023-05-03T18:40:50.088Z,14.57
2023-05-03T18:43:16.902Z,14.57
2023-05-03T18:45:44.455Z,14.55
2023-05-03T18:48:12.015Z,14.50
2023-05-03T18:50:39.435Z,14.49
2023-05-03T18:53:06.484Z,14.48
2023-05-03T18:55:33.220Z,14.51
2023-05-03T18:58:00.660Z,14.54
2023-05-03T19:00:27.826Z,14.56
2023-05-03T19:02:54.508Z,14.56
2023-05-03T19:05:21.355Z,14.53
2023-05-03T19:07:48.872Z,14.54
2023-05-03T19:10:16.258Z,14.47
2023-05-03T19:12:44.431Z,14.54
2023-05-03T19:15:11.746Z,14.54
2023-05-03T19:17:40.503Z,14.48
2023-05-03T19:20:07.947Z,14.47
2023-05-03T19:22:34.431Z,14.45
2023-05-03T19:25:03.463Z,14.41
2023-05-03T19:27:31.716Z,14.47
2023-05-03T19:29:58.404Z,14.51
2023-05-03T19:32:25.258Z,14.51
2023-05-03T19:34:51.962Z,14.49
2023-05-03T19:37:18.623Z,14.44
2023-05-03T19:39:45.669Z,14.40
2023-05-03T19:42:12.264Z,14.36
2023-05-03T19:44:39.180Z,14.38
2023-05-03T19:47:05.835Z,14.38
2023-05-03T19:49:32.701Z,14.34
2023-05-03T19:51:59.312Z,14.34
2023-05-03T19:54:26.299Z,14.33
2023-05-03T19:56:53.682Z,14.33
2023-05-03T19:59:20.145Z,14.27
2023-05-03T20:01:46.872Z,14.24
2023-05-03T20:04:13.832Z,14.13
2023-05-03T20:06:40.764Z,14.05
2023-05-03T20:09:07.667Z,14.09
2023-05-03T20:11:34.281Z,14.06
2023-05-03T20:14:01.222Z,13.94
2023-05-03T20:16:32.871Z,14.00
2023-05-03T20:18:59.971Z,13.99
2023-05-03T20:21:26.565Z,13.97
2023-05-03T20:23:53.151Z,13.95
2023-05-03T20:26:19.854Z,13.90
2023-05-03T20:28:46.497Z,13.88
2023-05-03T20:31:13.156Z,13.89
2023-05-03T20:33:39.829Z,13.84
2023-05-03T20:36:07.283Z,13.85
2023-05-03T20:38:33.897Z,13.85
2023-05-03T20:41:00.616Z,13.76
2023-05-03T20:43:27.302Z,13.65
2023-05-03T20:45:54.304Z,13.60
2023-05-03T20:48:21.335Z,13.64
2023-05-03T20:50:50.017Z,13.66
2023-05-03T20:53:16.884Z,13.66
2023-05-03T20:55:43.488Z,13.60
2023-05-03T20:58:12.193Z,13.60
2023-05-03T21:00:38.852Z,13.58
2023-05-03T21:03:05.555Z,13.54
2023-05-03T21:05:32.375Z,13.54
2023-05-03T21:07:58.922Z,13.50
2023-05-03T21:10:26.001Z,13.51
2023-05-03T21:12:52.684Z,13.50
2023-05-03T21:15:19.357Z,13.42
2023-05-03T21:17:46.137Z,13.37
2023-05-03T21:20:13.325Z,13.35
2023-05-03T21:22:39.998Z,13.35
2023-05-03T21:25:07.284Z,13.36
2023-05-03T21:27:33.907Z,13.35
2023-05-03T21:30:01.742Z,13.32
2023-05-03T21:32:28.582Z,13.35
2023-05-03T21:34:55.287Z,13.36
2023-05-03T21:37:21.982Z,13.34
2023-05-03T21:40:00.396Z,13.28
2023-05-03T21:42:27.907Z,13.39
2023-05-03T21:44:54.452Z,13.41
2023-05-03T21:47:21.320Z,13.40
2023-05-03T21:49:47.957Z,13.38
2023-05-03T21:52:14.613Z,13.43
2023-05-03T21:54:41.227Z,13.44
2023-05-03T21:57:07.921Z,13.36
2023-05-03T21:59:34.662Z,13.23
2023-05-03T22:02:01.435Z,13.34
2023-05-03T22:04:28.169Z,13.33
2023-05-03T22:06:54.957Z,13.37
2023-05-03T22:09:21.603Z,13.35
2023-05-03T22:11:48.238Z,13.35
2023-05-03T22:14:15.238Z,13.32
2023-05-03T22:16:42.206Z,13.20
2023-05-03T22:19:09.281Z,13.24
2023-05-03T22:21:35.887Z,13.15
2023-05-03T22:24:02.894Z,13.24
2023-05-03T22:26:29.913Z,13.13
2023-05-03T22:28:56.552Z,13.21
2023-05-03T22:31:23.225Z,13.22
2023-05-03T22:33:49.912Z,13.14
2023-05-03T22:36:16.493Z,13.14
2023-05-03T22:38:43.442Z,13.11
2023-05-03T22:41:10.495Z,12.94
2023-05-03T22:43:37.159Z,13.01
2023-05-03T22:46:04.133Z,12.95
2023-05-03T22:48:32.507Z,12.92
2023-05-03T22:50:59.440Z,12.92
2023-05-03T22:53:26.206Z,13.04
2023-05-03T22:56:01.433Z,13.12
2023-05-03T22:58:28.465Z,13.16
2023-05-03T23:00:55.138Z,13.11
2023-05-03T23:03:22.470Z,13.16
2023-05-03T23:05:49.413Z,13.19
2023-05-03T23:08:15.997Z,13.09
2023-05-03T23:10:42.800Z,13.10
2023-05-03T23:13:09.726Z,13.15
2023-05-03T23:15:36.720Z,13.14
2023-05-03T23:18:04.066Z,13.12
2023-05-03T23:20:30.720Z,13.10
2023-05-03T23:22:57.349Z,13.13
2023-05-03T23:25:23.942Z,13.11
2023-05-03T23:27:50.608Z,13.05
2023-05-03T23:30:17.753Z,13.00
2023-05-03T23:32:46.521Z,13.02
2023-05-03T23:35:15.149Z,12.94
2023-05-03T23:37:41.778Z,13.03
2023-05-03T23:40:08.815Z,12.97
2023-05-03T23:42:35.647Z,12.95
2023-05-03T23:45:02.287Z,12.90
2023-05-03T23:47:28.912Z,12.85
2023-05-03T23:49:55.847Z,12.85
2023-05-03T23:52:22.430Z,12.85
2023-05-03T23:54:49.167Z,12.82
2023-05-03T23:57:15.829Z,12.83
2023-05-03T23:59:42.407Z,12.85
